^^

Live Weather Display



Station Historical Data
 
Daily Summary for January 19, 2018 Units:  English    Metric   Both
« Previous Day
Next Day »
Daily Weekly Monthly Yearly Custom
  Current: High: Low: Average:
Temperature: 19.6 °F 23.2 °F 19.6 °F 21 °F
Dew Point: 15.2 °F 15.9 °F 14.8 °F 15.4 °F
Humidity: 83 % 83 % 71 % 79 %
Wind Speed: 0.0 mph 0.0 mph 0.0 mph 0 mph
Wind Gust: 0.0 mph 3.4 mph - -
Wind:Calm - - North
Pressure: 30.11 in 30.11 in 30.05 in -
Precipitation: 0.00 in      
Historical Graphs
 
 
Tabular Data for January 19, 2018
Time Temperature Dew Point Pressure Wind Wind Speed Wind Gust Humidity Rainfall Rate (Hourly)
00:04 23.2 °F 15.2 °F 30.10 in Calm     71 % 0.00 in
00:09 23.2 °F 15.2 °F 30.10 in Calm     71 % 0.00 in
00:14 23.2 °F 15.2 °F 30.10 in Calm     71 % 0.00 in
00:19 22.8 °F 14.8 °F 30.09 in Calm     71 % 0.00 in
00:24 22.8 °F 15.2 °F 30.09 in Calm     72 % 0.00 in
00:29 22.8 °F 15.2 °F 30.09 in Calm     72 % 0.00 in
00:34 22.8 °F 15.2 °F 30.09 in Calm     72 % 0.00 in
00:39 22.6 °F 15.3 °F 30.09 in Calm     73 % 0.00 in
00:44 22.5 °F 15.1 °F 30.10 in Calm     73 % 0.00 in
00:49 22.6 °F 15.3 °F 30.09 in Calm     73 % 0.00 in
00:54 22.6 °F 15.3 °F 30.09 in Calm     73 % 0.00 in
00:59 22.5 °F 15.4 °F 30.08 in Calm     74 % 0.00 in
01:04 22.5 °F 15.4 °F 30.09 in Calm     74 % 0.00 in
01:09 22.3 °F 15.2 °F 30.09 in Calm     74 % 0.00 in
01:14 22.3 °F 15.5 °F 30.08 in Calm     75 % 0.00 in
01:19 22.1 °F 15.3 °F 30.08 in Calm     75 % 0.00 in
01:24 22.1 °F 15.3 °F 30.09 in Calm     75 % 0.00 in
01:29 22.1 °F 15.3 °F 30.08 in Calm     75 % 0.00 in
01:34 21.9 °F 15.2 °F 30.08 in Calm     75 % 0.00 in
01:39 21.9 °F 15.2 °F 30.08 in Calm     75 % 0.00 in
01:44 21.9 °F 15.5 °F 30.08 in Calm     76 % 0.00 in
01:49 21.9 °F 15.5 °F 30.09 in Calm     76 % 0.00 in
01:54 21.9 °F 15.5 °F 30.08 in Calm     76 % 0.00 in
01:59 21.9 °F 15.5 °F 30.08 in Calm     76 % 0.00 in
02:04 21.7 °F 15.3 °F 30.08 in Calm     76 % 0.00 in
02:09 21.7 °F 15.3 °F 30.08 in Calm     76 % 0.00 in
02:14 21.7 °F 15.3 °F 30.08 in Calm     76 % 0.00 in
02:19 21.7 °F 15.3 °F 30.08 in Calm     76 % 0.00 in
02:24 21.7 °F 15.3 °F 30.08 in Calm     76 % 0.00 in
02:29 21.6 °F 15.4 °F 30.08 in Calm     77 % 0.00 in
02:34 21.6 °F 15.4 °F 30.07 in Calm     77 % 0.00 in
02:39 21.4 °F 15.2 °F 30.07 in Calm     77 % 0.00 in
02:44 21.4 °F 15.2 °F 30.07 in Calm     77 % 0.00 in
02:49 21.4 °F 15.5 °F 30.07 in Calm     78 % 0.00 in
02:54 21.4 °F 15.5 °F 30.07 in Calm     78 % 0.00 in
03:00 21.4 °F 15.5 °F 30.07 in Calm     78 % 0.00 in
03:05 21.4 °F 15.5 °F 30.06 in Calm     78 % 0.00 in
03:10 21.4 °F 15.9 °F 30.06 in Calm     79 % 0.00 in
03:15 21.4 °F 15.9 °F 30.07 in Calm     79 % 0.00 in
03:20 21.4 °F 15.9 °F 30.07 in Calm     79 % 0.00 in
03:25 21.0 °F 15.5 °F 30.06 in Calm     79 % 0.00 in
03:30 21.0 °F 15.5 °F 30.06 in Calm     79 % 0.00 in
03:35 21.0 °F 15.5 °F 30.05 in Calm     79 % 0.00 in
03:40 20.8 °F 15.3 °F 30.06 in Calm     79 % 0.00 in
03:45 20.8 °F 15.3 °F 30.06 in Calm     79 % 0.00 in
03:51 20.8 °F 15.3 °F 30.06 in Calm     79 % 0.00 in
03:56 20.8 °F 15.3 °F 30.06 in Calm   3.4 mph 79 % 0.00 in
04:01 20.8 °F 15.3 °F 30.06 in Calm   3.4 mph 79 % 0.00 in
04:05 20.8 °F 15.3 °F 30.06 in Calm     79 % 0.00 in
04:11 20.8 °F 15.6 °F 30.06 in Calm     80 % 0.00 in
04:16 20.8 °F 15.6 °F 30.06 in Calm     80 % 0.00 in
04:21 20.5 °F 15.3 °F 30.06 in Calm     80 % 0.00 in
04:26 20.7 °F 15.4 °F 30.06 in Calm     80 % 0.00 in
04:31 20.7 °F 15.4 °F 30.06 in Calm     80 % 0.00 in
04:36 20.5 °F 15.3 °F 30.06 in Calm     80 % 0.00 in
04:41 20.5 °F 15.3 °F 30.06 in Calm     80 % 0.00 in
04:46 20.5 °F 15.3 °F 30.06 in Calm     80 % 0.00 in
04:51 20.3 °F 15.3 °F 30.07 in Calm     81 % 0.00 in
04:56 20.3 °F 15.3 °F 30.07 in Calm     81 % 0.00 in
05:01 20.3 °F 15.3 °F 30.07 in Calm     81 % 0.00 in
05:06 20.3 °F 15.3 °F 30.07 in Calm     81 % 0.00 in
05:11 20.3 °F 15.3 °F 30.07 in Calm     81 % 0.00 in
05:16 20.1 °F 15.2 °F 30.07 in Calm     81 % 0.00 in
05:21 20.1 °F 15.2 °F 30.07 in Calm     81 % 0.00 in
05:26 20.3 °F 15.6 °F 30.07 in Calm     82 % 0.00 in
05:31 20.1 °F 15.4 °F 30.07 in Calm     82 % 0.00 in
05:36 20.1 °F 15.4 °F 30.07 in Calm     82 % 0.00 in
05:41 20.1 °F 15.4 °F 30.07 in Calm     82 % 0.00 in
05:46 20.3 °F 15.6 °F 30.06 in Calm     82 % 0.00 in
05:51 20.3 °F 15.6 °F 30.07 in Calm     82 % 0.00 in
06:01 20.1 °F 15.4 °F 30.07 in Calm   1.3 mph 82 % 0.00 in
06:06 19.9 °F 15.3 °F 30.07 in Calm   1.3 mph 82 % 0.00 in
06:11 19.8 °F 15.1 °F 30.07 in Calm     82 % 0.00 in
06:16 19.6 °F 14.9 °F 30.08 in Calm     82 % 0.00 in
06:21 19.9 °F 15.5 °F 30.07 in Calm     83 % 0.00 in
06:26 19.9 °F 15.5 °F 30.08 in Calm     83 % 0.00 in
06:31 20.1 °F 15.7 °F 30.08 in Calm     83 % 0.00 in
06:36 20.1 °F 15.7 °F 30.09 in Calm     83 % 0.00 in
06:41 19.9 °F 15.5 °F 30.09 in Calm     83 % 0.00 in
06:46 19.9 °F 15.5 °F 30.09 in Calm     83 % 0.00 in
06:51 19.8 °F 15.3 °F 30.09 in Calm     83 % 0.00 in
06:56 19.8 °F 15.3 °F 30.09 in Calm     83 % 0.00 in
07:01 19.8 °F 15.3 °F 30.10 in Calm     83 % 0.00 in
07:06 19.9 °F 15.5 °F 30.10 in Calm     83 % 0.00 in
07:11 19.9 °F 15.5 °F 30.10 in Calm     83 % 0.00 in
07:16 19.9 °F 15.5 °F 30.10 in Calm     83 % 0.00 in
07:21 19.9 °F 15.5 °F 30.10 in Calm     83 % 0.00 in
07:26 19.9 °F 15.3 °F 30.11 in Calm     82 % 0.00 in
07:31 19.9 °F 15.3 °F 30.11 in Calm     82 % 0.00 in
07:36 19.9 °F 15.5 °F 30.11 in Calm     83 % 0.00 in
07:41 19.8 °F 15.3 °F 30.11 in Calm     83 % 0.00 in
07:46 19.6 °F 15.2 °F 30.11 in Calm     83 % 0.00 in
07:51 19.6 °F 15.2 °F 30.11 in Calm     83 % 0.00 in
07:56 19.6 °F 15.2 °F 30.11 in Calm     83 % 0.00 in
Burke, Virginia, USA
Compliments of Weather Underground - 2 mb